createdAt,value
2022-10-25T00:00:00.972Z,47.41
2022-10-25T00:02:32.536Z,47.35
2022-10-25T00:04:59.376Z,47.91
2022-10-25T00:07:26.149Z,47.28
2022-10-25T00:09:53.148Z,46.79
2022-10-25T00:12:19.916Z,47.08
2022-10-25T00:14:46.668Z,46.60
2022-10-25T00:17:13.560Z,46.79
2022-10-25T00:19:40.295Z,46.60
2022-10-25T00:22:07.070Z,47.17
2022-10-25T00:24:33.955Z,47.99
2022-10-25T00:27:00.613Z,46.77
2022-10-25T00:29:28.006Z,47.41
2022-10-25T00:31:54.717Z,47.43
2022-10-25T00:34:21.584Z,47.13
2022-10-25T00:36:48.382Z,47.02
2022-10-25T00:39:15.322Z,48.32
2022-10-25T00:41:42.066Z,47.61
2022-10-25T00:44:53.670Z,48.83
2022-10-25T00:47:20.757Z,52.48
2022-10-25T00:49:58.307Z,51.22
2022-10-25T00:52:27.068Z,49.97
2022-10-25T00:54:54.561Z,49.18
2022-10-25T00:57:34.636Z,48.72
2022-10-25T01:00:02.772Z,49.11
2022-10-25T01:02:29.748Z,48.44
2022-10-25T01:04:57.165Z,48.66
2022-10-25T01:07:23.912Z,49.48
2022-10-25T01:09:51.814Z,51.78
2022-10-25T01:12:18.499Z,50.47
2022-10-25T01:14:48.719Z,50.39
2022-10-25T01:17:28.295Z,49.82
2022-10-25T01:20:39.910Z,49.85
2022-10-25T01:23:28.227Z,49.10
2022-10-25T01:26:22.748Z,48.13
2022-10-25T01:29:01.293Z,48.37
2022-10-25T01:31:53.416Z,47.95
2022-10-25T01:34:31.411Z,48.18
2022-10-25T01:37:07.203Z,48.67
2022-10-25T01:39:41.480Z,49.13
2022-10-25T01:42:14.314Z,48.31
2022-10-25T01:45:08.884Z,48.14
2022-10-25T01:47:42.144Z,49.65
2022-10-25T01:50:14.863Z,49.48
2022-10-25T01:52:41.865Z,49.06
2022-10-25T01:55:13.148Z,48.52
2022-10-25T01:58:11.036Z,49.03
2022-10-25T02:00:55.985Z,49.49
2022-10-25T02:03:31.992Z,49.28
2022-10-25T02:06:17.099Z,49.24
2022-10-25T02:08:50.660Z,49.59
2022-10-25T02:11:32.043Z,51.39
2022-10-25T02:14:32.380Z,52.89
2022-10-25T02:17:09.521Z,52.66
2022-10-25T02:19:59.307Z,52.87
2022-10-25T02:22:30.526Z,51.58
2022-10-25T02:24:58.057Z,51.29
2022-10-25T02:27:26.526Z,50.01
2022-10-25T02:29:54.815Z,50.31
2022-10-25T02:32:21.765Z,50.45
2022-10-25T02:34:50.114Z,49.97
2022-10-25T02:37:18.218Z,50.13
2022-10-25T02:39:45.924Z,49.55
2022-10-25T02:42:12.807Z,48.99
2022-10-25T02:44:39.576Z,48.94
2022-10-25T02:47:06.407Z,49.78
2022-10-25T02:49:33.212Z,49.50
2022-10-25T02:51:59.996Z,49.34
2022-10-25T02:54:26.837Z,49.35
2022-10-25T02:56:54.129Z,50.24
2022-10-25T02:59:21.394Z,49.30
2022-10-25T03:01:48.292Z,49.21
2022-10-25T03:04:15.296Z,48.91
2022-10-25T03:06:42.051Z,50.05
2022-10-25T03:09:08.899Z,51.64
2022-10-25T03:11:35.708Z,50.92
2022-10-25T03:14:02.445Z,50.07
2022-10-25T03:16:29.485Z,51.36
2022-10-25T03:18:59.876Z,51.11
2022-10-25T03:21:26.674Z,50.52
2022-10-25T03:23:53.543Z,50.04
2022-10-25T03:26:20.498Z,50.00
2022-10-25T03:28:47.159Z,49.57
2022-10-25T03:31:16.814Z,49.57
2022-10-25T03:33:44.181Z,49.42
2022-10-25T03:36:11.270Z,49.61
2022-10-25T03:38:38.188Z,49.77
2022-10-25T03:41:05.567Z,49.93
2022-10-25T03:43:32.324Z,50.94
2022-10-25T03:45:59.348Z,53.85
2022-10-25T03:48:26.299Z,54.02
2022-10-25T03:50:54.263Z,54.73
2022-10-25T03:53:21.231Z,55.24
2022-10-25T03:55:48.351Z,54.28
2022-10-25T03:58:15.222Z,53.16
2022-10-25T04:00:42.093Z,54.05
2022-10-25T04:03:09.400Z,56.22
2022-10-25T04:05:36.235Z,55.05
2022-10-25T04:08:03.296Z,53.32
2022-10-25T04:10:30.076Z,53.06
2022-10-25T04:12:56.932Z,53.44
2022-10-25T04:15:24.379Z,52.19
2022-10-25T04:17:52.226Z,52.44
2022-10-25T04:20:20.034Z,51.89
2022-10-25T04:22:53.207Z,51.81
2022-10-25T04:25:21.247Z,51.43
2022-10-25T04:27:48.433Z,52.21
2022-10-25T04:30:15.646Z,52.10
2022-10-25T04:32:42.460Z,51.63
2022-10-25T04:35:09.865Z,50.59
2022-10-25T04:37:36.742Z,50.76
2022-10-25T04:40:03.845Z,50.20
2022-10-25T04:42:33.884Z,50.63
2022-10-25T04:45:01.197Z,50.91
2022-10-25T04:47:31.510Z,50.78
2022-10-25T04:49:58.574Z,51.19
2022-10-25T04:52:25.326Z,51.60
2022-10-25T04:54:52.111Z,51.94
2022-10-25T04:57:18.904Z,51.11
2022-10-25T04:59:45.735Z,50.55
2022-10-25T05:02:12.644Z,52.28
2022-10-25T05:04:39.565Z,51.94
2022-10-25T05:07:06.311Z,53.45
2022-10-25T05:09:33.143Z,52.49
2022-10-25T05:11:59.827Z,52.22
2022-10-25T05:14:26.750Z,52.85
2022-10-25T05:16:53.423Z,51.86
2022-10-25T05:19:20.318Z,52.22
2022-10-25T05:21:47.825Z,52.13
2022-10-25T05:24:14.755Z,51.73
2022-10-25T05:26:41.435Z,52.38
2022-10-25T05:29:11.891Z,54.42
2022-10-25T05:31:41.338Z,54.86
2022-10-25T05:34:10.328Z,55.75
2022-10-25T05:36:37.316Z,55.04
2022-10-25T05:39:04.135Z,55.80
2022-10-25T05:41:33.391Z,53.87
2022-10-25T05:44:03.054Z,53.79
2022-10-25T05:46:29.999Z,54.52
2022-10-25T05:48:59.478Z,53.28
2022-10-25T05:51:37.656Z,54.34
2022-10-25T05:54:13.239Z,52.67
2022-10-25T05:56:40.409Z,52.89
2022-10-25T05:59:12.590Z,51.89
2022-10-25T06:01:48.718Z,51.60
2022-10-25T06:04:16.742Z,51.24
2022-10-25T06:06:45.503Z,52.04
2022-10-25T06:09:13.294Z,50.43
2022-10-25T06:11:40.680Z,51.16
2022-10-25T06:14:09.835Z,51.09
2022-10-25T06:16:38.352Z,49.87
2022-10-25T06:19:05.075Z,49.50
2022-10-25T06:21:31.835Z,49.32
2022-10-25T06:24:00.139Z,51.06
2022-10-25T06:26:29.283Z,51.09
2022-10-25T06:28:58.792Z,53.03
2022-10-25T06:31:25.965Z,50.54
2022-10-25T06:33:52.878Z,49.36
2022-10-25T06:36:24.561Z,50.31
2022-10-25T06:38:51.834Z,49.99
2022-10-25T06:41:21.277Z,51.29
2022-10-25T06:43:48.682Z,50.59
2022-10-25T06:46:20.519Z,50.89
2022-10-25T06:48:47.703Z,51.46
2022-10-25T06:51:15.375Z,52.26
2022-10-25T06:53:42.322Z,52.01
2022-10-25T06:56:14.469Z,50.64
2022-10-25T06:58:42.846Z,51.36
2022-10-25T07:01:15.006Z,50.81
2022-10-25T07:03:43.021Z,50.76
2022-10-25T07:06:15.971Z,49.96
2022-10-25T07:08:45.973Z,48.76
2022-10-25T07:11:18.404Z,48.52
2022-10-25T07:13:46.240Z,49.56
2022-10-25T07:16:32.862Z,50.56
2022-10-25T07:19:01.359Z,50.60
2022-10-25T07:21:29.889Z,49.62
2022-10-25T07:23:57.146Z,48.39
2022-10-25T07:26:27.295Z,49.16
2022-10-25T07:28:56.330Z,48.08
2022-10-25T07:31:26.182Z,46.67
2022-10-25T07:33:54.611Z,47.17
2022-10-25T07:36:21.498Z,45.74
2022-10-25T07:38:48.496Z,45.82
2022-10-25T07:41:15.490Z,47.15
2022-10-25T07:43:42.396Z,46.73
2022-10-25T07:46:09.571Z,45.81
2022-10-25T07:48:36.700Z,45.92
2022-10-25T07:51:08.839Z,44.90
2022-10-25T07:53:35.925Z,44.84
2022-10-25T07:56:03.433Z,43.05
2022-10-25T07:58:30.376Z,42.57
2022-10-25T08:01:05.041Z,41.59
2022-10-25T08:03:32.665Z,42.93
2022-10-25T08:06:00.082Z,41.57
2022-10-25T08:08:28.861Z,41.99
2022-10-25T08:10:55.964Z,41.75
2022-10-25T08:13:23.484Z,42.80
2022-10-25T08:15:55.281Z,42.37
2022-10-25T08:18:23.558Z,40.58
2022-10-25T08:21:02.348Z,40.89
2022-10-25T08:23:31.531Z,40.85
2022-10-25T08:25:58.948Z,40.21
2022-10-25T08:28:26.134Z,40.62
2022-10-25T08:30:55.294Z,39.39
2022-10-25T08:33:22.601Z,39.86
2022-10-25T08:35:49.549Z,39.92
2022-10-25T08:38:16.582Z,38.81
2022-10-25T08:40:56.172Z,39.47
2022-10-25T08:43:28.410Z,38.53
2022-10-25T08:46:02.600Z,39.02
2022-10-25T08:48:35.234Z,38.16
2022-10-25T08:51:14.685Z,39.42
2022-10-25T08:53:48.530Z,38.56
2022-10-25T08:56:19.141Z,38.62
2022-10-25T08:58:52.791Z,37.17
2022-10-25T09:01:27.504Z,37.31
2022-10-25T09:03:54.691Z,37.32
2022-10-25T09:06:28.471Z,36.12
2022-10-25T09:09:26.999Z,35.71
2022-10-25T09:12:02.978Z,35.55
2022-10-25T09:14:47.951Z,35.23
2022-10-25T09:17:28.840Z,34.05
2022-10-25T09:20:17.851Z,33.79
2022-10-25T09:22:54.376Z,34.69
2022-10-25T09:25:33.336Z,33.56
2022-10-25T09:28:03.807Z,34.08
2022-10-25T09:30:37.769Z,34.13
2022-10-25T09:33:11.102Z,34.24
2022-10-25T09:35:48.583Z,32.85
2022-10-25T09:38:40.109Z,33.50
2022-10-25T09:41:36.304Z,33.29
2022-10-25T09:44:36.410Z,32.95
2022-10-25T09:47:46.378Z,33.00
2022-10-25T09:50:35.179Z,32.60
2022-10-25T09:53:07.663Z,32.65
2022-10-25T09:55:41.310Z,33.46
2022-10-25T09:58:20.453Z,32.57
2022-10-25T10:00:48.395Z,31.59
2022-10-25T10:03:15.403Z,32.80
2022-10-25T10:05:48.265Z,31.89
2022-10-25T10:08:15.255Z,32.64
2022-10-25T10:10:42.471Z,31.23
2022-10-25T10:13:18.616Z,32.45
2022-10-25T10:16:11.067Z,32.00
2022-10-25T10:18:38.085Z,31.72
2022-10-25T10:21:04.691Z,32.09
2022-10-25T10:23:54.355Z,31.37
2022-10-25T10:26:35.294Z,32.11
2022-10-25T10:29:16.778Z,32.58
2022-10-25T10:31:48.067Z,32.17
2022-10-25T10:34:30.636Z,32.28
2022-10-25T10:37:12.619Z,32.17
2022-10-25T10:39:57.680Z,31.66
2022-10-25T10:42:37.154Z,31.54
2022-10-25T10:45:09.557Z,31.29
2022-10-25T10:47:56.971Z,30.34
2022-10-25T10:50:28.843Z,31.06
2022-10-25T10:52:59.392Z,30.50
2022-10-25T10:55:46.966Z,31.16
2022-10-25T10:58:31.667Z,31.48
2022-10-25T11:01:00.802Z,31.58
2022-10-25T11:03:49.126Z,31.65
2022-10-25T11:06:36.387Z,31.68
2022-10-25T11:09:19.408Z,31.13
2022-10-25T11:12:05.051Z,31.12
2022-10-25T11:14:31.947Z,30.39
2022-10-25T11:17:10.407Z,30.07
2022-10-25T11:19:56.143Z,30.57
2022-10-25T11:22:33.076Z,29.62
2022-10-25T11:25:12.207Z,29.45
2022-10-25T11:27:54.076Z,27.83
2022-10-25T11:30:27.156Z,28.11
2022-10-25T11:33:22.939Z,28.97
2022-10-25T11:36:10.256Z,28.54
2022-10-25T11:38:49.146Z,28.62
2022-10-25T11:41:34.784Z,27.16
2022-10-25T11:44:30.110Z,28.38
2022-10-25T11:47:05.899Z,27.58
2022-10-25T11:49:32.812Z,26.73
2022-10-25T11:52:24.144Z,26.47
2022-10-25T11:54:56.627Z,26.20
2022-10-25T11:57:33.852Z,26.27
2022-10-25T12:00:07.118Z,25.49
2022-10-25T12:03:02.759Z,25.42
2022-10-25T12:05:44.995Z,24.92
2022-10-25T12:08:37.708Z,24.49
2022-10-25T12:11:09.174Z,24.41
2022-10-25T12:13:42.956Z,23.18
2022-10-25T12:16:16.808Z,23.54
2022-10-25T12:18:49.565Z,23.15
2022-10-25T12:21:27.162Z,23.96
2022-10-25T12:23:55.213Z,22.66
2022-10-25T12:26:31.462Z,22.71
2022-10-25T12:29:02.046Z,21.85
2022-10-25T12:31:38.125Z,21.23
2022-10-25T12:34:35.442Z,20.84
2022-10-25T12:37:13.701Z,20.06
2022-10-25T12:39:43.252Z,19.91
2022-10-25T12:42:21.450Z,20.14
2022-10-25T12:45:26.859Z,19.93
2022-10-25T12:48:12.214Z,19.95
2022-10-25T12:51:02.611Z,18.80
2022-10-25T12:53:32.097Z,19.28
2022-10-25T12:56:17.415Z,17.97
2022-10-25T12:58:55.549Z,18.21
2022-10-25T13:01:40.114Z,18.42
2022-10-25T13:04:28.702Z,18.87
2022-10-25T13:06:57.736Z,17.89
2022-10-25T13:09:31.233Z,17.69
2022-10-25T13:12:02.727Z,18.08
2022-10-25T13:14:36.886Z,18.48
2022-10-25T13:17:15.909Z,17.98
2022-10-25T13:19:55.072Z,17.67
2022-10-25T13:22:36.044Z,17.48
2022-10-25T13:25:17.615Z,17.67
2022-10-25T13:28:15.621Z,17.74
2022-10-25T13:30:43.951Z,18.73
2022-10-25T13:33:21.641Z,18.99
2022-10-25T13:35:51.343Z,18.39
2022-10-25T13:38:24.069Z,18.79
2022-10-25T13:41:15.109Z,18.75
2022-10-25T13:43:56.982Z,19.21
2022-10-25T13:46:29.924Z,18.39
2022-10-25T13:48:57.523Z,19.33
2022-10-25T13:51:24.413Z,19.60
2022-10-25T13:53:53.079Z,19.79
2022-10-25T13:56:22.879Z,20.73
2022-10-25T13:59:01.333Z,21.38
2022-10-25T14:01:32.157Z,20.98
2022-10-25T14:04:01.936Z,21.22
2022-10-25T14:06:28.615Z,21.51
2022-10-25T14:09:09.405Z,21.99
2022-10-25T14:11:41.593Z,22.12
2022-10-25T14:14:21.891Z,21.79
2022-10-25T14:17:12.486Z,22.16
2022-10-25T14:19:41.991Z,22.94
2022-10-25T14:22:22.888Z,22.49
2022-10-25T14:24:53.265Z,22.15
2022-10-25T14:27:46.259Z,22.17
2022-10-25T14:30:25.389Z,22.79
2022-10-25T14:32:58.107Z,22.76
2022-10-25T14:35:45.102Z,22.74
2022-10-25T14:38:18.516Z,23.36
2022-10-25T14:41:00.110Z,23.03
2022-10-25T14:43:32.428Z,23.32
2022-10-25T14:46:14.446Z,23.52
2022-10-25T14:48:45.561Z,24.61
2022-10-25T14:51:22.888Z,24.21
2022-10-25T14:54:01.582Z,24.52
2022-10-25T14:56:30.372Z,24.72
2022-10-25T14:58:57.770Z,24.40
2022-10-25T15:01:24.948Z,24.79
2022-10-25T15:03:54.476Z,24.20
2022-10-25T15:06:26.794Z,24.80
2022-10-25T15:09:23.071Z,24.69
2022-10-25T15:12:05.428Z,24.30
2022-10-25T15:14:32.620Z,23.75
2022-10-25T15:17:15.977Z,23.09
2022-10-25T15:20:03.627Z,23.25
2022-10-25T15:22:52.306Z,22.59
2022-10-25T15:25:22.630Z,23.26
2022-10-25T15:27:51.342Z,23.67
2022-10-25T15:30:41.872Z,26.63
2022-10-25T15:33:12.042Z,27.43
2022-10-25T15:35:53.234Z,28.09
2022-10-25T15:38:20.118Z,28.35
2022-10-25T15:40:48.458Z,28.72
2022-10-25T15:43:15.951Z,28.19
2022-10-25T15:45:42.712Z,28.70
2022-10-25T15:48:14.651Z,28.03
2022-10-25T15:50:47.124Z,27.99
2022-10-25T15:53:14.061Z,26.35
2022-10-25T15:55:40.885Z,26.85
2022-10-25T15:58:09.891Z,26.26
2022-10-25T16:00:38.880Z,25.61
2022-10-25T16:03:08.558Z,25.44
2022-10-25T16:05:38.000Z,25.90
2022-10-25T16:08:05.174Z,25.94
2022-10-25T16:10:32.083Z,25.68
2022-10-25T16:13:04.826Z,25.64
2022-10-25T16:15:31.835Z,25.33
2022-10-25T16:17:58.742Z,25.73
2022-10-25T16:20:30.288Z,25.99
2022-10-25T16:22:57.931Z,26.79
2022-10-25T16:25:30.450Z,26.75
2022-10-25T16:28:00.767Z,26.71
2022-10-25T16:30:33.976Z,26.65
2022-10-25T16:33:01.119Z,26.16
2022-10-25T16:35:27.805Z,26.11
2022-10-25T16:37:54.484Z,26.47
2022-10-25T16:40:22.030Z,26.26
2022-10-25T16:42:49.300Z,27.13
2022-10-25T16:45:30.151Z,26.58
2022-10-25T16:47:58.244Z,27.38
2022-10-25T16:50:26.655Z,27.15
2022-10-25T16:52:56.389Z,26.87
2022-10-25T16:55:23.756Z,27.61
2022-10-25T16:57:50.721Z,27.20
2022-10-25T17:00:17.972Z,27.23
2022-10-25T17:02:44.931Z,27.60
2022-10-25T17:05:24.380Z,27.90
2022-10-25T17:07:51.437Z,27.46
2022-10-25T17:10:20.072Z,27.62
2022-10-25T17:12:49.803Z,27.74
2022-10-25T17:15:17.831Z,27.89
2022-10-25T17:17:45.817Z,27.85
2022-10-25T17:20:15.702Z,27.74
2022-10-25T17:22:42.855Z,27.93
2022-10-25T17:25:10.853Z,28.00
2022-10-25T17:27:39.972Z,27.99
2022-10-25T17:30:08.424Z,27.98
2022-10-25T17:32:35.424Z,27.74
2022-10-25T17:35:02.144Z,28.40
2022-10-25T17:37:28.871Z,28.36
2022-10-25T17:39:56.623Z,28.77
2022-10-25T17:42:23.651Z,28.67
2022-10-25T17:44:50.433Z,28.87
2022-10-25T17:47:17.142Z,29.75
2022-10-25T17:49:43.940Z,30.17
2022-10-25T17:52:11.229Z,30.31
2022-10-25T17:54:39.948Z,30.56
2022-10-25T17:57:06.735Z,30.48
2022-10-25T17:59:35.635Z,30.45
2022-10-25T18:02:02.883Z,30.65
2022-10-25T18:04:41.915Z,31.56
2022-10-25T18:07:16.672Z,31.12
2022-10-25T18:09:43.459Z,31.81
2022-10-25T18:12:10.320Z,31.25
2022-10-25T18:14:37.124Z,31.27
2022-10-25T18:17:04.248Z,30.88
2022-10-25T18:19:30.908Z,30.44
2022-10-25T18:22:01.716Z,30.46
2022-10-25T18:24:31.863Z,30.29
2022-10-25T18:26:59.456Z,30.71
2022-10-25T18:29:26.318Z,31.74
2022-10-25T18:31:53.093Z,31.90
2022-10-25T18:34:20.030Z,32.70
2022-10-25T18:36:46.742Z,32.25
2022-10-25T18:39:13.993Z,32.36
2022-10-25T18:41:42.423Z,31.92
2022-10-25T18:44:14.286Z,32.33
2022-10-25T18:46:42.736Z,31.98
2022-10-25T18:49:12.333Z,32.79
2022-10-25T18:51:40.662Z,32.70
2022-10-25T18:54:11.745Z,32.95
2022-10-25T18:56:39.806Z,33.43
2022-10-25T18:59:06.747Z,33.56
2022-10-25T19:01:33.737Z,33.52
2022-10-25T19:04:03.528Z,32.58
2022-10-25T19:06:31.244Z,32.85
2022-10-25T19:08:58.651Z,33.25
2022-10-25T19:11:26.053Z,33.69
2022-10-25T19:13:54.705Z,33.59
2022-10-25T19:16:22.552Z,33.87
2022-10-25T19:18:49.470Z,34.15
2022-10-25T19:21:18.440Z,34.44
2022-10-25T19:23:46.789Z,34.19
2022-10-25T19:26:19.521Z,34.14
2022-10-25T19:28:47.557Z,34.36
2022-10-25T19:31:17.397Z,34.16
2022-10-25T19:33:49.283Z,34.07
2022-10-25T19:36:17.327Z,34.12
2022-10-25T19:38:50.799Z,34.21
2022-10-25T19:41:20.439Z,34.10
2022-10-25T19:43:47.555Z,34.44
2022-10-25T19:46:15.004Z,34.54
2022-10-25T19:48:42.052Z,34.23
2022-10-25T19:51:11.484Z,34.66
2022-10-25T19:53:38.711Z,34.57
2022-10-25T19:56:07.118Z,34.01
2022-10-25T19:58:33.902Z,34.49
2022-10-25T20:01:12.808Z,34.69
2022-10-25T20:03:40.723Z,34.52
2022-10-25T20:06:21.561Z,34.55
2022-10-25T20:08:52.682Z,34.63
2022-10-25T20:11:19.864Z,35.49
2022-10-25T20:13:46.784Z,35.68
2022-10-25T20:16:14.149Z,35.86
2022-10-25T20:18:42.383Z,36.18
2022-10-25T20:21:14.193Z,36.90
2022-10-25T20:23:44.452Z,37.13
2022-10-25T20:26:19.735Z,36.79
2022-10-25T20:28:47.540Z,37.23
2022-10-25T20:31:15.750Z,36.85
2022-10-25T20:33:42.771Z,37.80
2022-10-25T20:36:12.292Z,38.24
2022-10-25T20:38:39.968Z,38.07
2022-10-25T20:41:12.298Z,38.10
2022-10-25T20:43:40.040Z,38.31
2022-10-25T20:46:07.992Z,37.80
2022-10-25T20:48:35.816Z,37.68
2022-10-25T20:51:06.750Z,38.23
2022-10-25T20:53:35.438Z,38.17
2022-10-25T20:56:02.462Z,38.43
2022-10-25T20:58:29.399Z,38.71
2022-10-25T21:00:57.494Z,39.10
2022-10-25T21:03:29.543Z,39.94
2022-10-25T21:05:58.114Z,40.36
2022-10-25T21:08:25.608Z,41.14
2022-10-25T21:11:01.078Z,40.48
2022-10-25T21:13:31.382Z,40.76
2022-10-25T21:15:58.495Z,40.20
2022-10-25T21:18:29.159Z,40.89
2022-10-25T21:21:01.093Z,40.90
2022-10-25T21:23:28.299Z,40.15
2022-10-25T21:25:59.781Z,40.14
2022-10-25T21:28:27.095Z,40.18
2022-10-25T21:30:54.518Z,41.26
2022-10-25T21:33:21.376Z,42.12
2022-10-25T21:35:48.259Z,41.51
2022-10-25T21:38:14.930Z,41.51
2022-10-25T21:40:41.915Z,41.96
2022-10-25T21:43:08.590Z,40.91
2022-10-25T21:45:35.354Z,42.48
2022-10-25T21:48:02.133Z,42.37
2022-10-25T21:50:29.149Z,42.46
2022-10-25T21:52:55.879Z,42.64
2022-10-25T21:55:22.740Z,43.61
2022-10-25T21:57:51.870Z,41.51
2022-10-25T22:00:20.804Z,43.29
2022-10-25T22:02:48.435Z,41.88
2022-10-25T22:05:15.467Z,42.34
2022-10-25T22:07:42.161Z,41.89
2022-10-25T22:10:09.588Z,41.58
2022-10-25T22:12:36.360Z,41.89
2022-10-25T22:15:03.164Z,41.34
2022-10-25T22:17:29.989Z,41.82
2022-10-25T22:19:56.688Z,42.41
2022-10-25T22:22:23.399Z,41.17
2022-10-25T22:24:50.117Z,42.23
2022-10-25T22:27:17.030Z,41.87
2022-10-25T22:29:43.754Z,41.62
2022-10-25T22:32:10.465Z,42.18
2022-10-25T22:34:37.183Z,41.14
2022-10-25T22:37:03.924Z,41.81
2022-10-25T22:39:30.816Z,41.87
2022-10-25T22:41:57.586Z,42.64
2022-10-25T22:44:24.314Z,42.89
2022-10-25T22:46:51.125Z,42.64
2022-10-25T22:49:19.325Z,42.34
2022-10-25T22:51:46.182Z,42.50
2022-10-25T22:54:12.881Z,42.28
2022-10-25T22:56:39.833Z,42.08
2022-10-25T22:59:06.995Z,42.38
2022-10-25T23:01:35.832Z,42.56
2022-10-25T23:04:04.363Z,42.01
2022-10-25T23:06:34.762Z,42.13
2022-10-25T23:09:04.758Z,42.25
2022-10-25T23:11:34.381Z,41.89
2022-10-25T23:14:01.870Z,42.84
2022-10-25T23:16:29.389Z,43.21
2022-10-25T23:18:56.530Z,42.92
2022-10-25T23:21:30.041Z,42.27
2022-10-25T23:23:58.724Z,42.06
2022-10-25T23:26:32.128Z,42.83
2022-10-25T23:29:00.172Z,42.93
2022-10-25T23:31:27.569Z,43.33
2022-10-25T23:33:56.541Z,43.35
2022-10-25T23:36:25.922Z,42.95
2022-10-25T23:38:54.266Z,42.92
2022-10-25T23:41:22.140Z,42.80
2022-10-25T23:43:49.128Z,42.57
2022-10-25T23:46:16.029Z,42.64
2022-10-25T23:48:42.761Z,42.20
2022-10-25T23:51:14.787Z,42.04
2022-10-25T23:53:43.308Z,42.88
2022-10-25T23:56:12.435Z,42.09
2022-10-25T23:58:39.619Z,42.71
